sensor_id;sensor_type;location;lat;lon;timestamp;P1;durP1;ratioP1;P2;durP2;ratioP2
6809;SDS011;3443;48.812;9.112;2023-05-07T00:01:45;1.30;;;1.30;;
6809;SDS011;3443;48.812;9.112;2023-05-07T00:04:11;1.58;;;1.48;;
6809;SDS011;3443;48.812;9.112;2023-05-07T00:06:38;1.73;;;1.63;;
6809;SDS011;3443;48.812;9.112;2023-05-07T00:09:04;1.60;;;1.60;;
6809;SDS011;3443;48.812;9.112;2023-05-07T00:11:31;1.63;;;1.58;;
6809;SDS011;3443;48.812;9.112;2023-05-07T00:13:57;1.30;;;1.20;;
6809;SDS011;3443;48.812;9.112;2023-05-07T00:16:22;1.70;;;1.40;;
6809;SDS011;3443;48.812;9.112;2023-05-07T00:18:49;1.73;;;1.58;;
6809;SDS011;3443;48.812;9.112;2023-05-07T00:21:15;1.67;;;1.58;;
6809;SDS011;3443;48.812;9.112;2023-05-07T00:23:41;2.15;;;1.60;;
6809;SDS011;3443;48.812;9.112;2023-05-07T00:26:07;1.63;;;1.63;;
6809;SDS011;3443;48.812;9.112;2023-05-07T00:28:33;1.65;;;1.27;;
6809;SDS011;3443;48.812;9.112;2023-05-07T00:30:59;1.73;;;1.73;;
6809;SDS011;3443;48.812;9.112;2023-05-07T00:33:25;2.03;;;1.80;;
6809;SDS011;3443;48.812;9.112;2023-05-07T00:35:51;1.98;;;1.90;;
6809;SDS011;3443;48.812;9.112;2023-05-07T00:38:19;1.98;;;1.88;;
6809;SDS011;3443;48.812;9.112;2023-05-07T00:40:45;2.95;;;1.60;;
6809;SDS011;3443;48.812;9.112;2023-05-07T00:43:11;1.60;;;1.50;;
6809;SDS011;3443;48.812;9.112;2023-05-07T00:45:37;1.48;;;1.38;;
6809;SDS011;3443;48.812;9.112;2023-05-07T00:48:03;2.25;;;1.60;;
6809;SDS011;3443;48.812;9.112;2023-05-07T00:50:30;1.48;;;1.48;;
6809;SDS011;3443;48.812;9.112;2023-05-07T00:52:56;1.55;;;1.55;;
6809;SDS011;3443;48.812;9.112;2023-05-07T00:55:23;1.20;;;1.20;;
6809;SDS011;3443;48.812;9.112;2023-05-07T00:57:49;1.20;;;1.20;;
6809;SDS011;3443;48.812;9.112;2023-05-07T01:00:16;1.48;;;1.48;;
6809;SDS011;3443;48.812;9.112;2023-05-07T01:02:43;1.98;;;1.30;;
6809;SDS011;3443;48.812;9.112;2023-05-07T01:05:10;1.55;;;1.45;;
6809;SDS011;3443;48.812;9.112;2023-05-07T01:07:38;1.30;;;1.30;;
6809;SDS011;3443;48.812;9.112;2023-05-07T01:10:05;2.20;;;1.77;;
6809;SDS011;3443;48.812;9.112;2023-05-07T01:12:32;2.72;;;2.05;;
6809;SDS011;3443;48.812;9.112;2023-05-07T01:14:58;2.28;;;1.83;;
6809;SDS011;3443;48.812;9.112;2023-05-07T01:17:24;2.10;;;2.00;;
6809;SDS011;3443;48.812;9.112;2023-05-07T01:19:50;1.90;;;1.90;;
6809;SDS011;3443;48.812;9.112;2023-05-07T01:22:22;2.13;;;1.52;;
6809;SDS011;3443;48.812;9.112;2023-05-07T01:24:50;1.80;;;1.70;;
6809;SDS011;3443;48.812;9.112;2023-05-07T01:27:16;2.03;;;1.92;;
6809;SDS011;3443;48.812;9.112;2023-05-07T01:29:42;1.90;;;1.63;;
6809;SDS011;3443;48.812;9.112;2023-05-07T01:32:08;2.75;;;1.83;;
6809;SDS011;3443;48.812;9.112;2023-05-07T01:34:34;1.90;;;1.85;;
6809;SDS011;3443;48.812;9.112;2023-05-07T01:37:02;1.92;;;1.75;;
6809;SDS011;3443;48.812;9.112;2023-05-07T01:39:29;1.92;;;1.45;;
6809;SDS011;3443;48.812;9.112;2023-05-07T01:41:55;1.40;;;1.30;;
6809;SDS011;3443;48.812;9.112;2023-05-07T01:44:22;1.60;;;1.50;;
6809;SDS011;3443;48.812;9.112;2023-05-07T01:46:48;2.08;;;1.20;;
6809;SDS011;3443;48.812;9.112;2023-05-07T01:49:15;1.52;;;1.40;;
6809;SDS011;3443;48.812;9.112;2023-05-07T01:51:41;1.98;;;1.48;;
6809;SDS011;3443;48.812;9.112;2023-05-07T01:54:07;1.80;;;1.10;;
6809;SDS011;3443;48.812;9.112;2023-05-07T01:56:33;1.23;;;1.20;;
6809;SDS011;3443;48.812;9.112;2023-05-07T01:58:59;1.70;;;1.60;;
6809;SDS011;3443;48.812;9.112;2023-05-07T02:01:25;2.15;;;1.17;;
6809;SDS011;3443;48.812;9.112;2023-05-07T02:03:51;1.40;;;1.40;;
6809;SDS011;3443;48.812;9.112;2023-05-07T02:06:18;1.73;;;1.50;;
6809;SDS011;3443;48.812;9.112;2023-05-07T02:08:44;3.17;;;1.50;;
6809;SDS011;3443;48.812;9.112;2023-05-07T02:11:11;1.25;;;1.25;;
6809;SDS011;3443;48.812;9.112;2023-05-07T02:13:37;1.58;;;1.48;;
6809;SDS011;3443;48.812;9.112;2023-05-07T02:16:03;1.58;;;1.48;;
6809;SDS011;3443;48.812;9.112;2023-05-07T02:18:29;1.30;;;1.30;;
6809;SDS011;3443;48.812;9.112;2023-05-07T02:20:55;1.33;;;1.33;;
6809;SDS011;3443;48.812;9.112;2023-05-07T02:23:21;2.53;;;1.42;;
6809;SDS011;3443;48.812;9.112;2023-05-07T02:25:47;1.52;;;1.42;;
6809;SDS011;3443;48.812;9.112;2023-05-07T02:28:13;1.40;;;1.40;;
6809;SDS011;3443;48.812;9.112;2023-05-07T02:30:39;1.35;;;1.35;;
6809;SDS011;3443;48.812;9.112;2023-05-07T02:33:05;1.60;;;1.50;;
6809;SDS011;3443;48.812;9.112;2023-05-07T02:35:33;2.67;;;1.65;;
6809;SDS011;3443;48.812;9.112;2023-05-07T02:37:59;1.52;;;1.40;;
6809;SDS011;3443;48.812;9.112;2023-05-07T02:40:25;1.63;;;1.52;;
6809;SDS011;3443;48.812;9.112;2023-05-07T02:42:51;1.60;;;1.50;;
6809;SDS011;3443;48.812;9.112;2023-05-07T02:45:16;1.70;;;1.60;;
6809;SDS011;3443;48.812;9.112;2023-05-07T02:47:42;3.90;;;1.60;;
6809;SDS011;3443;48.812;9.112;2023-05-07T02:50:08;2.15;;;1.48;;
6809;SDS011;3443;48.812;9.112;2023-05-07T02:52:34;1.60;;;1.60;;
6809;SDS011;3443;48.812;9.112;2023-05-07T02:55:00;1.55;;;1.55;;
6809;SDS011;3443;48.812;9.112;2023-05-07T02:57:27;1.73;;;1.63;;
6809;SDS011;3443;48.812;9.112;2023-05-07T02:59:53;1.58;;;1.50;;
6809;SDS011;3443;48.812;9.112;2023-05-07T03:02:19;1.48;;;1.40;;
6809;SDS011;3443;48.812;9.112;2023-05-07T03:04:45;1.58;;;1.58;;
6809;SDS011;3443;48.812;9.112;2023-05-07T03:07:11;1.67;;;1.67;;
6809;SDS011;3443;48.812;9.112;2023-05-07T03:09:37;1.67;;;1.67;;
6809;SDS011;3443;48.812;9.112;2023-05-07T03:12:03;1.40;;;1.40;;
6809;SDS011;3443;48.812;9.112;2023-05-07T03:14:29;1.55;;;1.55;;
6809;SDS011;3443;48.812;9.112;2023-05-07T03:16:55;1.45;;;1.45;;
6809;SDS011;3443;48.812;9.112;2023-05-07T03:19:21;2.08;;;1.75;;
6809;SDS011;3443;48.812;9.112;2023-05-07T03:21:47;1.58;;;1.50;;
6809;SDS011;3443;48.812;9.112;2023-05-07T03:24:13;2.03;;;1.50;;
6809;SDS011;3443;48.812;9.112;2023-05-07T03:26:39;1.45;;;1.45;;
6809;SDS011;3443;48.812;9.112;2023-05-07T03:29:05;1.95;;;1.67;;
6809;SDS011;3443;48.812;9.112;2023-05-07T03:31:31;1.55;;;1.55;;
6809;SDS011;3443;48.812;9.112;2023-05-07T03:33:57;1.50;;;1.50;;
6809;SDS011;3443;48.812;9.112;2023-05-07T03:36:23;2.67;;;1.92;;
6809;SDS011;3443;48.812;9.112;2023-05-07T03:38:51;1.75;;;1.60;;
6809;SDS011;3443;48.812;9.112;2023-05-07T03:41:17;1.60;;;1.50;;
6809;SDS011;3443;48.812;9.112;2023-05-07T03:43:43;1.65;;;1.65;;
6809;SDS011;3443;48.812;9.112;2023-05-07T03:46:09;1.70;;;1.70;;
6809;SDS011;3443;48.812;9.112;2023-05-07T03:48:35;1.80;;;1.70;;
6809;SDS011;3443;48.812;9.112;2023-05-07T03:51:01;1.67;;;1.58;;
6809;SDS011;3443;48.812;9.112;2023-05-07T03:53:27;2.35;;;1.65;;
6809;SDS011;3443;48.812;9.112;2023-05-07T03:55:53;1.73;;;1.63;;
6809;SDS011;3443;48.812;9.112;2023-05-07T03:58:19;1.80;;;1.70;;
6809;SDS011;3443;48.812;9.112;2023-05-07T04:00:45;1.95;;;1.67;;
6809;SDS011;3443;48.812;9.112;2023-05-07T04:03:11;1.67;;;1.60;;
6809;SDS011;3443;48.812;9.112;2023-05-07T04:05:37;1.83;;;1.73;;
6809;SDS011;3443;48.812;9.112;2023-05-07T04:08:03;1.90;;;1.80;;
6809;SDS011;3443;48.812;9.112;2023-05-07T04:10:29;1.60;;;1.60;;
6809;SDS011;3443;48.812;9.112;2023-05-07T04:12:55;2.30;;;1.75;;
6809;SDS011;3443;48.812;9.112;2023-05-07T04:15:22;1.60;;;1.60;;
6809;SDS011;3443;48.812;9.112;2023-05-07T04:17:49;1.65;;;1.65;;
6809;SDS011;3443;48.812;9.112;2023-05-07T04:20:15;1.70;;;1.58;;
6809;SDS011;3443;48.812;9.112;2023-05-07T04:22:42;1.95;;;1.85;;
6809;SDS011;3443;48.812;9.112;2023-05-07T04:25:08;1.52;;;1.52;;
6809;SDS011;3443;48.812;9.112;2023-05-07T04:27:35;1.90;;;1.80;;
6809;SDS011;3443;48.812;9.112;2023-05-07T04:30:01;1.73;;;1.63;;
6809;SDS011;3443;48.812;9.112;2023-05-07T04:32:28;1.77;;;1.77;;
6809;SDS011;3443;48.812;9.112;2023-05-07T04:34:54;1.83;;;1.73;;
6809;SDS011;3443;48.812;9.112;2023-05-07T04:37:20;1.85;;;1.40;;
6809;SDS011;3443;48.812;9.112;2023-05-07T04:39:46;1.90;;;1.73;;
6809;SDS011;3443;48.812;9.112;2023-05-07T04:42:16;1.65;;;1.65;;
6809;SDS011;3443;48.812;9.112;2023-05-07T04:44:42;3.17;;;1.80;;
6809;SDS011;3443;48.812;9.112;2023-05-07T04:47:08;1.73;;;1.67;;
6809;SDS011;3443;48.812;9.112;2023-05-07T04:49:34;1.73;;;1.70;;
6809;SDS011;3443;48.812;9.112;2023-05-07T04:51:59;1.50;;;1.42;;
6809;SDS011;3443;48.812;9.112;2023-05-07T04:54:26;1.30;;;1.30;;
6809;SDS011;3443;48.812;9.112;2023-05-07T04:56:52;1.48;;;1.48;;
6809;SDS011;3443;48.812;9.112;2023-05-07T04:59:18;1.60;;;1.55;;
6809;SDS011;3443;48.812;9.112;2023-05-07T05:01:44;1.70;;;1.60;;
6809;SDS011;3443;48.812;9.112;2023-05-07T05:04:09;1.40;;;1.30;;
6809;SDS011;3443;48.812;9.112;2023-05-07T05:06:35;1.90;;;1.70;;
6809;SDS011;3443;48.812;9.112;2023-05-07T05:09:01;1.52;;;1.52;;
6809;SDS011;3443;48.812;9.112;2023-05-07T05:11:29;1.75;;;1.65;;
6809;SDS011;3443;48.812;9.112;2023-05-07T05:13:55;1.50;;;1.50;;
6809;SDS011;3443;48.812;9.112;2023-05-07T05:16:21;1.77;;;1.70;;
6809;SDS011;3443;48.812;9.112;2023-05-07T05:18:47;1.95;;;1.80;;
6809;SDS011;3443;48.812;9.112;2023-05-07T05:21:13;1.58;;;1.48;;
6809;SDS011;3443;48.812;9.112;2023-05-07T05:23:39;7.10;;;1.98;;
6809;SDS011;3443;48.812;9.112;2023-05-07T05:26:05;1.58;;;1.50;;
6809;SDS011;3443;48.812;9.112;2023-05-07T05:28:31;3.13;;;1.50;;
6809;SDS011;3443;48.812;9.112;2023-05-07T05:30:57;1.40;;;1.40;;
6809;SDS011;3443;48.812;9.112;2023-05-07T05:33:23;2.05;;;1.95;;
6809;SDS011;3443;48.812;9.112;2023-05-07T05:35:49;2.45;;;2.00;;
6809;SDS011;3443;48.812;9.112;2023-05-07T05:38:15;1.60;;;1.60;;
6809;SDS011;3443;48.812;9.112;2023-05-07T05:40:41;1.90;;;1.80;;
6809;SDS011;3443;48.812;9.112;2023-05-07T05:43:07;3.53;;;1.80;;
6809;SDS011;3443;48.812;9.112;2023-05-07T05:45:33;1.70;;;1.60;;
6809;SDS011;3443;48.812;9.112;2023-05-07T05:48:00;1.95;;;1.80;;
6809;SDS011;3443;48.812;9.112;2023-05-07T05:50:26;1.88;;;1.77;;
6809;SDS011;3443;48.812;9.112;2023-05-07T05:52:52;1.80;;;1.70;;
6809;SDS011;3443;48.812;9.112;2023-05-07T05:55:18;3.28;;;2.50;;
6809;SDS011;3443;48.812;9.112;2023-05-07T05:57:44;2.15;;;2.05;;
6809;SDS011;3443;48.812;9.112;2023-05-07T06:00:10;3.33;;;3.03;;
6809;SDS011;3443;48.812;9.112;2023-05-07T06:02:36;3.50;;;2.80;;
6809;SDS011;3443;48.812;9.112;2023-05-07T06:05:02;3.38;;;3.03;;
6809;SDS011;3443;48.812;9.112;2023-05-07T06:07:28;5.38;;;3.20;;
6809;SDS011;3443;48.812;9.112;2023-05-07T06:09:54;5.75;;;3.40;;
6809;SDS011;3443;48.812;9.112;2023-05-07T06:12:20;3.33;;;3.03;;
6809;SDS011;3443;48.812;9.112;2023-05-07T06:14:46;3.38;;;3.17;;
6809;SDS011;3443;48.812;9.112;2023-05-07T06:17:12;2.90;;;2.63;;
6809;SDS011;3443;48.812;9.112;2023-05-07T06:19:38;3.60;;;3.28;;
6809;SDS011;3443;48.812;9.112;2023-05-07T06:22:04;2.90;;;2.70;;
6809;SDS011;3443;48.812;9.112;2023-05-07T06:24:30;3.20;;;3.08;;
6809;SDS011;3443;48.812;9.112;2023-05-07T06:26:56;3.30;;;3.10;;
6809;SDS011;3443;48.812;9.112;2023-05-07T06:29:23;3.83;;;3.30;;
6809;SDS011;3443;48.812;9.112;2023-05-07T06:31:51;3.53;;;3.22;;
6809;SDS011;3443;48.812;9.112;2023-05-07T06:34:17;3.90;;;3.53;;
6809;SDS011;3443;48.812;9.112;2023-05-07T06:36:43;6.35;;;4.00;;
6809;SDS011;3443;48.812;9.112;2023-05-07T06:39:09;4.88;;;3.80;;
6809;SDS011;3443;48.812;9.112;2023-05-07T06:41:35;3.97;;;3.70;;
6809;SDS011;3443;48.812;9.112;2023-05-07T06:44:01;4.40;;;4.10;;
6809;SDS011;3443;48.812;9.112;2023-05-07T06:46:28;4.22;;;3.90;;
6809;SDS011;3443;48.812;9.112;2023-05-07T06:48:54;3.47;;;3.17;;
6809;SDS011;3443;48.812;9.112;2023-05-07T06:51:21;3.92;;;3.70;;
6809;SDS011;3443;48.812;9.112;2023-05-07T06:53:47;3.60;;;3.30;;
6809;SDS011;3443;48.812;9.112;2023-05-07T06:56:13;3.45;;;3.25;;
6809;SDS011;3443;48.812;9.112;2023-05-07T06:58:39;4.35;;;3.65;;
6809;SDS011;3443;48.812;9.112;2023-05-07T07:01:05;3.63;;;3.30;;
6809;SDS011;3443;48.812;9.112;2023-05-07T07:03:31;3.20;;;3.00;;
6809;SDS011;3443;48.812;9.112;2023-05-07T07:05:57;5.28;;;3.20;;
6809;SDS011;3443;48.812;9.112;2023-05-07T07:08:23;3.33;;;3.13;;
6809;SDS011;3443;48.812;9.112;2023-05-07T07:10:49;3.00;;;2.80;;
6809;SDS011;3443;48.812;9.112;2023-05-07T07:13:15;3.38;;;3.08;;
6809;SDS011;3443;48.812;9.112;2023-05-07T07:15:41;3.15;;;2.95;;
6809;SDS011;3443;48.812;9.112;2023-05-07T07:18:07;2.63;;;2.42;;
6809;SDS011;3443;48.812;9.112;2023-05-07T07:20:33;2.70;;;2.50;;
6809;SDS011;3443;48.812;9.112;2023-05-07T07:22:59;2.65;;;2.45;;
6809;SDS011;3443;48.812;9.112;2023-05-07T07:25:25;3.08;;;2.88;;
6809;SDS011;3443;48.812;9.112;2023-05-07T07:27:51;3.40;;;3.10;;
6809;SDS011;3443;48.812;9.112;2023-05-07T07:30:17;2.92;;;2.80;;
6809;SDS011;3443;48.812;9.112;2023-05-07T07:32:43;2.30;;;2.20;;
6809;SDS011;3443;48.812;9.112;2023-05-07T07:35:09;2.45;;;2.20;;
6809;SDS011;3443;48.812;9.112;2023-05-07T07:37:35;2.40;;;2.20;;
6809;SDS011;3443;48.812;9.112;2023-05-07T07:40:01;2.45;;;2.25;;
6809;SDS011;3443;48.812;9.112;2023-05-07T07:42:28;2.88;;;2.10;;
6809;SDS011;3443;48.812;9.112;2023-05-07T07:44:54;2.30;;;2.20;;
6809;SDS011;3443;48.812;9.112;2023-05-07T07:47:22;1.83;;;1.70;;
6809;SDS011;3443;48.812;9.112;2023-05-07T07:49:48;3.92;;;2.13;;
6809;SDS011;3443;48.812;9.112;2023-05-07T07:52:14;1.83;;;1.83;;
6809;SDS011;3443;48.812;9.112;2023-05-07T07:54:40;2.20;;;1.60;;
6809;SDS011;3443;48.812;9.112;2023-05-07T07:57:06;2.20;;;1.95;;
6809;SDS011;3443;48.812;9.112;2023-05-07T07:59:32;1.90;;;1.80;;
6809;SDS011;3443;48.812;9.112;2023-05-07T08:01:58;2.00;;;1.90;;
6809;SDS011;3443;48.812;9.112;2023-05-07T08:04:24;1.85;;;1.60;;
6809;SDS011;3443;48.812;9.112;2023-05-07T08:06:50;2.13;;;2.00;;
6809;SDS011;3443;48.812;9.112;2023-05-07T08:09:16;1.70;;;1.70;;
6809;SDS011;3443;48.812;9.112;2023-05-07T08:11:42;2.47;;;1.95;;
6809;SDS011;3443;48.812;9.112;2023-05-07T08:14:08;2.88;;;2.60;;
6809;SDS011;3443;48.812;9.112;2023-05-07T08:16:34;1.80;;;1.70;;
6809;SDS011;3443;48.812;9.112;2023-05-07T08:19:00;2.47;;;2.17;;
6809;SDS011;3443;48.812;9.112;2023-05-07T08:21:26;3.33;;;2.10;;
6809;SDS011;3443;48.812;9.112;2023-05-07T08:23:52;2.03;;;1.92;;
6809;SDS011;3443;48.812;9.112;2023-05-07T08:26:18;2.60;;;2.10;;
6809;SDS011;3443;48.812;9.112;2023-05-07T08:28:44;2.00;;;1.67;;
6809;SDS011;3443;48.812;9.112;2023-05-07T08:31:10;2.33;;;2.10;;
6809;SDS011;3443;48.812;9.112;2023-05-07T08:33:36;2.40;;;2.20;;
6809;SDS011;3443;48.812;9.112;2023-05-07T08:36:03;2.55;;;2.35;;
6809;SDS011;3443;48.812;9.112;2023-05-07T08:38:29;2.00;;;1.95;;
6809;SDS011;3443;48.812;9.112;2023-05-07T08:40:55;3.60;;;1.92;;
6809;SDS011;3443;48.812;9.112;2023-05-07T08:43:21;2.60;;;2.20;;
6809;SDS011;3443;48.812;9.112;2023-05-07T08:45:50;2.58;;;2.47;;
6809;SDS011;3443;48.812;9.112;2023-05-07T08:48:18;2.47;;;2.28;;
6809;SDS011;3443;48.812;9.112;2023-05-07T08:50:46;2.33;;;2.10;;
6809;SDS011;3443;48.812;9.112;2023-05-07T08:53:12;2.53;;;2.25;;
6809;SDS011;3443;48.812;9.112;2023-05-07T08:55:38;2.75;;;2.28;;
6809;SDS011;3443;48.812;9.112;2023-05-07T08:58:04;2.22;;;2.13;;
6809;SDS011;3443;48.812;9.112;2023-05-07T09:00:30;2.78;;;2.47;;
6809;SDS011;3443;48.812;9.112;2023-05-07T09:02:56;2.20;;;2.08;;
6809;SDS011;3443;48.812;9.112;2023-05-07T09:05:22;2.17;;;2.05;;
6809;SDS011;3443;48.812;9.112;2023-05-07T09:07:48;1.90;;;1.80;;
6809;SDS011;3443;48.812;9.112;2023-05-07T09:10:15;3.33;;;1.90;;
6809;SDS011;3443;48.812;9.112;2023-05-07T09:12:41;2.90;;;1.65;;
6809;SDS011;3443;48.812;9.112;2023-05-07T09:15:07;1.70;;;1.70;;
6809;SDS011;3443;48.812;9.112;2023-05-07T09:17:33;2.35;;;1.65;;
6809;SDS011;3443;48.812;9.112;2023-05-07T09:20:05;1.30;;;1.30;;
6809;SDS011;3443;48.812;9.112;2023-05-07T09:22:32;1.60;;;1.50;;
6809;SDS011;3443;48.812;9.112;2023-05-07T09:24:58;1.17;;;1.17;;
6809;SDS011;3443;48.812;9.112;2023-05-07T09:27:24;1.23;;;1.23;;
6809;SDS011;3443;48.812;9.112;2023-05-07T09:29:51;1.95;;;1.50;;
6809;SDS011;3443;48.812;9.112;2023-05-07T09:32:17;1.23;;;1.23;;
6809;SDS011;3443;48.812;9.112;2023-05-07T09:34:43;1.10;;;1.00;;
6809;SDS011;3443;48.812;9.112;2023-05-07T09:37:10;1.55;;;1.40;;
6809;SDS011;3443;48.812;9.112;2023-05-07T09:39:41;1.70;;;1.10;;
6809;SDS011;3443;48.812;9.112;2023-05-07T09:42:07;1.20;;;1.15;;
6809;SDS011;3443;48.812;9.112;2023-05-07T09:44:34;1.30;;;1.20;;
6809;SDS011;3443;48.812;9.112;2023-05-07T09:47:00;1.48;;;1.02;;
6809;SDS011;3443;48.812;9.112;2023-05-07T09:49:29;1.50;;;1.40;;
6809;SDS011;3443;48.812;9.112;2023-05-07T09:51:55;1.33;;;1.25;;
6809;SDS011;3443;48.812;9.112;2023-05-07T09:54:21;3.10;;;1.13;;
6809;SDS011;3443;48.812;9.112;2023-05-07T09:56:48;1.10;;;0.95;;
6809;SDS011;3443;48.812;9.112;2023-05-07T09:59:14;0.93;;;0.90;;
6809;SDS011;3443;48.812;9.112;2023-05-07T10:01:41;1.15;;;1.02;;
6809;SDS011;3443;48.812;9.112;2023-05-07T10:04:08;1.65;;;1.00;;
6809;SDS011;3443;48.812;9.112;2023-05-07T10:06:34;3.45;;;1.20;;
6809;SDS011;3443;48.812;9.112;2023-05-07T10:09:01;0.77;;;0.77;;
6809;SDS011;3443;48.812;9.112;2023-05-07T10:11:27;1.00;;;1.00;;
6809;SDS011;3443;48.812;9.112;2023-05-07T10:13:54;1.45;;;0.90;;
6809;SDS011;3443;48.812;9.112;2023-05-07T10:16:23;1.45;;;1.20;;
6809;SDS011;3443;48.812;9.112;2023-05-07T10:18:49;2.17;;;1.08;;
6809;SDS011;3443;48.812;9.112;2023-05-07T10:21:19;1.27;;;1.10;;
6809;SDS011;3443;48.812;9.112;2023-05-07T10:23:45;0.93;;;0.93;;
6809;SDS011;3443;48.812;9.112;2023-05-07T10:26:14;1.17;;;1.08;;
6809;SDS011;3443;48.812;9.112;2023-05-07T10:28:41;1.35;;;1.25;;
6809;SDS011;3443;48.812;9.112;2023-05-07T10:31:25;0.95;;;0.95;;
6809;SDS011;3443;48.812;9.112;2023-05-07T10:33:54;1.52;;;1.17;;
6809;SDS011;3443;48.812;9.112;2023-05-07T10:36:21;1.40;;;1.30;;
6809;SDS011;3443;48.812;9.112;2023-05-07T10:38:47;1.52;;;1.42;;
6809;SDS011;3443;48.812;9.112;2023-05-07T10:41:13;1.23;;;1.23;;
6809;SDS011;3443;48.812;9.112;2023-05-07T10:43:42;0.90;;;0.90;;
6809;SDS011;3443;48.812;9.112;2023-05-07T10:51:22;1.30;;;1.20;;
6809;SDS011;3443;48.812;9.112;2023-05-07T10:53:48;1.00;;;1.00;;
6809;SDS011;3443;48.812;9.112;2023-05-07T10:58:46;1.80;;;1.70;;
6809;SDS011;3443;48.812;9.112;2023-05-07T11:01:12;2.05;;;1.90;;
6809;SDS011;3443;48.812;9.112;2023-05-07T11:06:24;2.95;;;1.67;;
6809;SDS011;3443;48.812;9.112;2023-05-07T11:11:18;2.63;;;1.63;;
6809;SDS011;3443;48.812;9.112;2023-05-07T11:13:47;2.13;;;1.80;;
6809;SDS011;3443;48.812;9.112;2023-05-07T11:21:21;2.13;;;1.25;;
6809;SDS011;3443;48.812;9.112;2023-05-07T11:23:57;0.90;;;0.90;;
6809;SDS011;3443;48.812;9.112;2023-05-07T11:26:23;1.08;;;0.90;;
6809;SDS011;3443;48.812;9.112;2023-05-07T11:28:50;1.40;;;1.30;;
6809;SDS011;3443;48.812;9.112;2023-05-07T11:31:20;1.42;;;1.40;;
6809;SDS011;3443;48.812;9.112;2023-05-07T11:33:47;1.80;;;1.70;;
6809;SDS011;3443;48.812;9.112;2023-05-07T11:36:13;2.75;;;1.60;;
6809;SDS011;3443;48.812;9.112;2023-05-07T11:38:39;2.28;;;1.90;;
6809;SDS011;3443;48.812;9.112;2023-05-07T11:41:06;3.50;;;2.55;;
6809;SDS011;3443;48.812;9.112;2023-05-07T11:43:32;1.80;;;1.80;;
6809;SDS011;3443;48.812;9.112;2023-05-07T11:46:10;1.77;;;1.67;;
6809;SDS011;3443;48.812;9.112;2023-05-07T11:48:36;2.13;;;1.90;;
6809;SDS011;3443;48.812;9.112;2023-05-07T11:51:06;3.13;;;2.08;;
6809;SDS011;3443;48.812;9.112;2023-05-07T11:53:40;4.30;;;1.90;;
6809;SDS011;3443;48.812;9.112;2023-05-07T11:56:10;3.38;;;2.00;;
6809;SDS011;3443;48.812;9.112;2023-05-07T11:58:36;4.30;;;1.80;;
6809;SDS011;3443;48.812;9.112;2023-05-07T12:01:03;1.70;;;1.60;;
6809;SDS011;3443;48.812;9.112;2023-05-07T12:03:29;2.67;;;1.70;;
6809;SDS011;3443;48.812;9.112;2023-05-07T12:05:55;1.55;;;1.45;;
6809;SDS011;3443;48.812;9.112;2023-05-07T12:08:21;1.85;;;1.75;;
6809;SDS011;3443;48.812;9.112;2023-05-07T12:10:50;2.38;;;1.60;;
6809;SDS011;3443;48.812;9.112;2023-05-07T12:15:45;3.47;;;1.30;;
6809;SDS011;3443;48.812;9.112;2023-05-07T12:18:11;1.58;;;1.35;;
6809;SDS011;3443;48.812;9.112;2023-05-07T12:20:38;1.92;;;1.38;;
6809;SDS011;3443;48.812;9.112;2023-05-07T12:23:04;2.63;;;1.48;;
6809;SDS011;3443;48.812;9.112;2023-05-07T12:25:31;3.40;;;1.65;;
6809;SDS011;3443;48.812;9.112;2023-05-07T12:28:01;2.63;;;1.27;;
6809;SDS011;3443;48.812;9.112;2023-05-07T12:30:27;3.50;;;1.20;;
6809;SDS011;3443;48.812;9.112;2023-05-07T12:32:53;3.03;;;1.10;;
6809;SDS011;3443;48.812;9.112;2023-05-07T12:35:26;1.90;;;1.35;;
6809;SDS011;3443;48.812;9.112;2023-05-07T12:37:56;1.65;;;1.40;;
6809;SDS011;3443;48.812;9.112;2023-05-07T12:40:24;2.00;;;1.80;;
6809;SDS011;3443;48.812;9.112;2023-05-07T12:42:59;3.78;;;2.20;;
6809;SDS011;3443;48.812;9.112;2023-05-07T12:45:25;4.53;;;1.95;;
6809;SDS011;3443;48.812;9.112;2023-05-07T12:47:51;3.63;;;2.03;;
6809;SDS011;3443;48.812;9.112;2023-05-07T12:50:17;2.08;;;1.75;;
6809;SDS011;3443;48.812;9.112;2023-05-07T12:52:43;1.77;;;1.60;;
6809;SDS011;3443;48.812;9.112;2023-05-07T12:55:11;3.38;;;1.50;;
6809;SDS011;3443;48.812;9.112;2023-05-07T12:57:39;2.58;;;1.42;;
6809;SDS011;3443;48.812;9.112;2023-05-07T13:00:10;2.28;;;1.00;;
6809;SDS011;3443;48.812;9.112;2023-05-07T13:02:40;3.25;;;1.20;;
6809;SDS011;3443;48.812;9.112;2023-05-07T13:05:06;2.40;;;1.58;;
6809;SDS011;3443;48.812;9.112;2023-05-07T13:07:32;2.83;;;1.80;;
6809;SDS011;3443;48.812;9.112;2023-05-07T13:09:58;2.70;;;2.08;;
6809;SDS011;3443;48.812;9.112;2023-05-07T13:12:24;1.63;;;1.45;;
6809;SDS011;3443;48.812;9.112;2023-05-07T13:14:49;1.50;;;1.00;;
6809;SDS011;3443;48.812;9.112;2023-05-07T13:17:15;3.55;;;1.38;;
6809;SDS011;3443;48.812;9.112;2023-05-07T13:19:40;1.40;;;1.30;;
6809;SDS011;3443;48.812;9.112;2023-05-07T13:22:06;2.35;;;1.02;;
6809;SDS011;3443;48.812;9.112;2023-05-07T13:24:32;1.02;;;0.90;;
6809;SDS011;3443;48.812;9.112;2023-05-07T13:26:57;1.40;;;0.80;;
6809;SDS011;3443;48.812;9.112;2023-05-07T13:29:23;2.90;;;0.98;;
6809;SDS011;3443;48.812;9.112;2023-05-07T13:31:54;2.15;;;0.73;;
6809;SDS011;3443;48.812;9.112;2023-05-07T13:34:23;0.50;;;0.50;;
6809;SDS011;3443;48.812;9.112;2023-05-07T13:36:49;6.20;;;0.90;;
6809;SDS011;3443;48.812;9.112;2023-05-07T13:39:15;1.65;;;0.90;;
6809;SDS011;3443;48.812;9.112;2023-05-07T13:41:40;1.23;;;1.13;;
6809;SDS011;3443;48.812;9.112;2023-05-07T13:44:06;1.20;;;1.10;;
6809;SDS011;3443;48.812;9.112;2023-05-07T13:46:32;3.28;;;1.05;;
6809;SDS011;3443;48.812;9.112;2023-05-07T13:48:57;1.73;;;0.82;;
6809;SDS011;3443;48.812;9.112;2023-05-07T13:51:23;3.55;;;0.95;;
6809;SDS011;3443;48.812;9.112;2023-05-07T13:53:48;1.73;;;0.98;;
6809;SDS011;3443;48.812;9.112;2023-05-07T13:56:14;0.75;;;0.70;;
6809;SDS011;3443;48.812;9.112;2023-05-07T13:58:40;3.88;;;0.90;;
6809;SDS011;3443;48.812;9.112;2023-05-07T14:01:05;0.80;;;0.80;;
6809;SDS011;3443;48.812;9.112;2023-05-07T14:03:31;0.85;;;0.80;;
6809;SDS011;3443;48.812;9.112;2023-05-07T14:05:58;0.63;;;0.50;;
6809;SDS011;3443;48.812;9.112;2023-05-07T14:08:26;2.08;;;0.55;;
6809;SDS011;3443;48.812;9.112;2023-05-07T14:10:52;0.75;;;0.40;;
6809;SDS011;3443;48.812;9.112;2023-05-07T14:13:17;1.20;;;0.77;;
6809;SDS011;3443;48.812;9.112;2023-05-07T14:15:43;1.38;;;0.68;;
6809;SDS011;3443;48.812;9.112;2023-05-07T14:18:13;0.70;;;0.70;;
6809;SDS011;3443;48.812;9.112;2023-05-07T14:20:39;1.20;;;0.60;;
6809;SDS011;3443;48.812;9.112;2023-05-07T14:23:05;0.90;;;0.90;;
6809;SDS011;3443;48.812;9.112;2023-05-07T14:25:31;1.45;;;0.80;;
6809;SDS011;3443;48.812;9.112;2023-05-07T14:27:57;1.63;;;0.90;;
6809;SDS011;3443;48.812;9.112;2023-05-07T14:30:22;1.83;;;0.98;;
6809;SDS011;3443;48.812;9.112;2023-05-07T14:32:49;1.52;;;1.00;;
6809;SDS011;3443;48.812;9.112;2023-05-07T14:35:15;1.48;;;0.95;;
6809;SDS011;3443;48.812;9.112;2023-05-07T14:37:41;1.20;;;1.08;;
6809;SDS011;3443;48.812;9.112;2023-05-07T14:40:07;2.42;;;1.20;;
6809;SDS011;3443;48.812;9.112;2023-05-07T14:42:33;1.40;;;1.27;;
6809;SDS011;3443;48.812;9.112;2023-05-07T14:44:58;2.58;;;1.00;;
6809;SDS011;3443;48.812;9.112;2023-05-07T14:47:24;0.95;;;0.95;;
6809;SDS011;3443;48.812;9.112;2023-05-07T14:49:50;0.70;;;0.70;;
6809;SDS011;3443;48.812;9.112;2023-05-07T14:52:16;2.15;;;1.02;;
6809;SDS011;3443;48.812;9.112;2023-05-07T14:54:41;1.17;;;1.15;;
6809;SDS011;3443;48.812;9.112;2023-05-07T14:57:07;0.70;;;0.70;;
6809;SDS011;3443;48.812;9.112;2023-05-07T14:59:34;0.55;;;0.55;;
6809;SDS011;3443;48.812;9.112;2023-05-07T15:02:00;1.27;;;0.85;;
6809;SDS011;3443;48.812;9.112;2023-05-07T15:04:26;0.82;;;0.80;;
6809;SDS011;3443;48.812;9.112;2023-05-07T15:06:51;0.88;;;0.70;;
6809;SDS011;3443;48.812;9.112;2023-05-07T15:09:18;0.70;;;0.70;;
6809;SDS011;3443;48.812;9.112;2023-05-07T15:11:44;1.27;;;1.08;;
6809;SDS011;3443;48.812;9.112;2023-05-07T15:14:10;2.25;;;1.50;;
6809;SDS011;3443;48.812;9.112;2023-05-07T15:16:35;1.50;;;1.50;;
6809;SDS011;3443;48.812;9.112;2023-05-07T15:19:01;1.67;;;1.20;;
6809;SDS011;3443;48.812;9.112;2023-05-07T15:21:26;1.10;;;1.10;;
6809;SDS011;3443;48.812;9.112;2023-05-07T15:23:52;1.75;;;1.25;;
6809;SDS011;3443;48.812;9.112;2023-05-07T15:26:17;2.08;;;1.30;;
6809;SDS011;3443;48.812;9.112;2023-05-07T15:28:43;1.38;;;1.38;;
6809;SDS011;3443;48.812;9.112;2023-05-07T15:31:09;2.10;;;1.20;;